createdAt,value
2022-10-29T00:01:00.378Z,16.81
2022-10-29T00:03:30.739Z,16.86
2022-10-29T00:06:16.857Z,16.95
2022-10-29T00:11:34.306Z,16.80
2022-10-29T00:16:48.347Z,16.84
2022-10-29T00:27:35.518Z,16.84
2022-10-29T00:30:05.622Z,16.81
2022-10-29T00:32:34.362Z,16.92
2022-10-29T00:35:02.313Z,16.95
2022-10-29T00:37:29.689Z,16.80
2022-10-29T00:39:56.784Z,16.75
2022-10-29T00:42:27.647Z,16.75
2022-10-29T00:45:02.793Z,16.68
2022-10-29T00:47:42.354Z,16.90
2022-10-29T00:50:16.362Z,16.75
2022-10-29T00:52:49.760Z,16.69
2022-10-29T00:55:20.756Z,16.60
2022-10-29T00:57:54.655Z,16.55
2022-10-29T01:00:22.504Z,16.55
2022-10-29T01:02:57.136Z,16.56
2022-10-29T01:05:26.128Z,16.60
2022-10-29T01:07:55.712Z,16.53
2022-10-29T01:10:36.102Z,16.67
2022-10-29T01:13:44.458Z,16.45
2022-10-29T01:16:33.040Z,16.35
2022-10-29T01:19:32.316Z,16.28
2022-10-29T01:22:16.621Z,16.37
2022-10-29T01:25:12.820Z,16.51
2022-10-29T01:27:59.744Z,16.52
2022-10-29T01:30:32.386Z,16.53
2022-10-29T01:33:30.105Z,16.38
2022-10-29T01:36:01.813Z,16.37
2022-10-29T01:39:13.971Z,16.47
2022-10-29T01:41:52.889Z,16.62
2022-10-29T01:44:44.515Z,16.65
2022-10-29T01:47:22.136Z,16.48
2022-10-29T01:50:02.812Z,16.37
2022-10-29T01:52:38.052Z,16.28
2022-10-29T01:55:06.155Z,16.32
2022-10-29T01:57:45.149Z,16.34
2022-10-29T02:00:23.986Z,16.32
2022-10-29T02:03:30.293Z,16.22
2022-10-29T02:06:13.772Z,16.30
2022-10-29T02:09:09.632Z,16.26
2022-10-29T02:11:55.667Z,16.18
2022-10-29T02:14:50.554Z,16.12
2022-10-29T02:17:20.637Z,16.13
2022-10-29T02:19:50.303Z,16.17
2022-10-29T02:22:24.099Z,16.14
2022-10-29T02:24:53.667Z,16.11
2022-10-29T02:27:22.876Z,16.10
2022-10-29T02:29:49.579Z,16.08
2022-10-29T02:32:22.321Z,16.10
2022-10-29T02:34:55.008Z,16.19
2022-10-29T02:37:24.896Z,16.30
2022-10-29T02:39:51.637Z,16.38
2022-10-29T02:42:18.345Z,16.30
2022-10-29T02:44:45.152Z,16.19
2022-10-29T02:47:11.841Z,16.08
2022-10-29T02:49:43.082Z,16.02
2022-10-29T02:52:22.105Z,16.06
2022-10-29T02:54:49.093Z,15.93
2022-10-29T02:57:18.755Z,15.85
2022-10-29T02:59:55.632Z,15.89
2022-10-29T03:02:26.668Z,15.97
2022-10-29T03:04:55.263Z,15.88
2022-10-29T03:07:21.968Z,15.95
2022-10-29T03:09:49.628Z,15.93
2022-10-29T03:12:16.567Z,16.17
2022-10-29T03:14:43.245Z,16.16
2022-10-29T03:17:10.713Z,15.93
2022-10-29T03:19:48.845Z,15.93
2022-10-29T03:22:15.930Z,15.88
2022-10-29T03:24:42.796Z,15.94
2022-10-29T03:27:20.895Z,15.85
2022-10-29T03:29:47.991Z,15.83
2022-10-29T03:32:17.603Z,15.79
2022-10-29T03:34:47.884Z,15.71
2022-10-29T03:37:25.552Z,15.75
2022-10-29T03:39:52.848Z,15.78
2022-10-29T03:42:22.631Z,15.88
2022-10-29T03:45:01.131Z,16.03
2022-10-29T03:47:35.467Z,15.78
2022-10-29T03:50:05.434Z,15.75
2022-10-29T03:52:32.409Z,15.87
2022-10-29T03:55:02.134Z,15.89
2022-10-29T03:57:28.869Z,15.72
2022-10-29T04:00:02.781Z,15.94
2022-10-29T04:02:30.237Z,15.83
2022-10-29T04:04:59.734Z,15.75
2022-10-29T04:07:27.846Z,15.72
2022-10-29T04:09:54.574Z,15.67
2022-10-29T04:12:21.322Z,15.66
2022-10-29T04:14:48.550Z,15.69
2022-10-29T04:20:10.039Z,15.79
2022-10-29T04:31:15.571Z,15.82
2022-10-29T04:33:42.282Z,15.66
2022-10-29T04:36:10.674Z,15.65
2022-10-29T04:38:46.540Z,15.61
2022-10-29T04:41:18.159Z,15.59
2022-10-29T04:46:24.049Z,15.81
2022-10-29T04:48:51.349Z,15.92
2022-10-29T04:51:23.154Z,15.80
2022-10-29T04:54:09.429Z,15.92
2022-10-29T04:56:38.720Z,16.01
2022-10-29T05:01:51.185Z,15.65
2022-10-29T05:04:26.244Z,15.77
2022-10-29T05:06:53.468Z,15.84
2022-10-29T05:09:20.663Z,15.84
2022-10-29T05:11:47.397Z,15.75
2022-10-29T05:14:13.928Z,15.63
2022-10-29T05:20:27.999Z,15.96
2022-10-29T05:23:06.450Z,15.88
2022-10-29T05:25:35.380Z,15.72
2022-10-29T05:28:08.533Z,15.70
2022-10-29T05:30:38.357Z,15.76
2022-10-29T05:33:14.305Z,15.77
2022-10-29T05:35:41.475Z,15.97
2022-10-29T05:38:12.364Z,15.99
2022-10-29T05:40:39.726Z,16.27
2022-10-29T05:43:21.727Z,16.18
2022-10-29T05:46:19.864Z,15.88
2022-10-29T05:48:46.591Z,15.83
2022-10-29T05:51:13.346Z,15.98
2022-10-29T05:53:39.996Z,15.99
2022-10-29T05:56:07.342Z,15.88
2022-10-29T05:59:02.286Z,15.85
2022-10-29T06:01:29.055Z,15.84
2022-10-29T06:03:55.884Z,15.85
2022-10-29T06:06:22.637Z,15.72
2022-10-29T06:08:49.347Z,15.70
2022-10-29T06:11:16.182Z,15.69
2022-10-29T06:13:42.688Z,15.75
2022-10-29T06:16:09.404Z,15.80
2022-10-29T06:18:37.797Z,15.77
2022-10-29T06:21:05.343Z,15.67
2022-10-29T06:23:32.188Z,15.66
2022-10-29T06:26:04.130Z,15.73
2022-10-29T06:28:34.689Z,15.78
2022-10-29T06:31:01.762Z,15.83
2022-10-29T06:33:28.600Z,15.82
2022-10-29T06:36:00.754Z,15.93
2022-10-29T06:38:27.651Z,15.88
2022-10-29T06:40:54.395Z,15.92
2022-10-29T06:43:23.528Z,16.01
2022-10-29T06:45:54.688Z,15.99
2022-10-29T06:48:22.716Z,16.06
2022-10-29T06:50:51.560Z,16.25
2022-10-29T06:53:49.423Z,16.22
2022-10-29T06:56:16.151Z,16.21
2022-10-29T06:58:45.942Z,16.34
2022-10-29T07:01:12.734Z,16.42
2022-10-29T07:03:39.555Z,16.41
2022-10-29T07:06:06.463Z,16.55
2022-10-29T07:08:33.579Z,16.53
2022-10-29T07:11:02.900Z,16.47
2022-10-29T07:13:46.303Z,16.61
2022-10-29T07:16:29.939Z,16.80
2022-10-29T07:18:58.195Z,16.77
2022-10-29T07:21:28.038Z,16.76
2022-10-29T07:23:56.589Z,16.83
2022-10-29T07:27:09.568Z,16.88
2022-10-29T07:29:39.569Z,17.08
2022-10-29T07:32:06.273Z,17.28
2022-10-29T07:34:32.904Z,17.41
2022-10-29T07:39:44.379Z,17.99
2022-10-29T07:42:17.220Z,18.02
2022-10-29T07:44:47.221Z,18.14
2022-10-29T07:47:13.917Z,18.46
2022-10-29T07:49:40.542Z,18.46
2022-10-29T07:52:19.375Z,18.55
2022-10-29T07:54:46.134Z,18.68
2022-10-29T07:57:25.616Z,18.70
2022-10-29T08:00:17.095Z,18.94
2022-10-29T08:02:43.780Z,19.09
2022-10-29T08:05:10.519Z,19.10
2022-10-29T08:07:39.927Z,19.05
2022-10-29T08:10:07.268Z,19.12
2022-10-29T08:12:34.164Z,19.24
2022-10-29T08:15:16.692Z,19.28
2022-10-29T08:17:48.043Z,19.17
2022-10-29T08:20:22.212Z,19.25
2022-10-29T08:22:49.088Z,19.32
2022-10-29T08:25:16.204Z,19.46
2022-10-29T08:27:43.408Z,19.58
2022-10-29T08:30:40.990Z,19.62
2022-10-29T08:36:14.963Z,19.81
2022-10-29T08:38:41.822Z,19.92
2022-10-29T08:41:34.040Z,20.14
2022-10-29T08:44:28.764Z,20.24
2022-10-29T08:47:21.332Z,20.27
2022-10-29T08:49:52.046Z,20.27
2022-10-29T08:52:28.575Z,20.41
2022-10-29T08:55:15.581Z,20.49
2022-10-29T08:57:46.017Z,20.58
2022-10-29T09:00:21.918Z,20.59
2022-10-29T09:02:58.084Z,20.64
2022-10-29T09:06:05.459Z,20.75
2022-10-29T09:08:57.226Z,20.70
2022-10-29T09:11:39.228Z,20.76
2022-10-29T09:14:46.839Z,20.86
2022-10-29T09:17:16.726Z,20.89
2022-10-29T09:19:52.367Z,20.95
2022-10-29T09:22:50.780Z,21.12
2022-10-29T09:25:26.566Z,21.04
2022-10-29T09:28:25.898Z,21.14
2022-10-29T09:31:19.435Z,21.21
2022-10-29T09:33:57.816Z,21.29
2022-10-29T09:36:32.639Z,21.38
2022-10-29T09:39:34.343Z,21.52
2022-10-29T09:42:05.427Z,21.61
2022-10-29T09:44:58.653Z,21.72
2022-10-29T09:47:47.666Z,21.68
2022-10-29T09:50:29.959Z,21.77
2022-10-29T09:52:56.851Z,21.76
2022-10-29T09:55:28.882Z,21.81
2022-10-29T09:58:01.140Z,21.90
2022-10-29T10:00:31.751Z,21.95
2022-10-29T10:03:12.520Z,21.96
2022-10-29T10:06:03.716Z,21.95
2022-10-29T10:08:32.174Z,22.11
2022-10-29T10:11:05.454Z,22.33
2022-10-29T10:13:41.923Z,22.37
2022-10-29T10:16:11.714Z,22.39
2022-10-29T10:21:24.617Z,22.53
2022-10-29T10:23:54.492Z,22.52
2022-10-29T10:26:46.631Z,22.61
2022-10-29T10:29:31.891Z,22.71
2022-10-29T10:32:07.356Z,22.62
2022-10-29T10:34:35.860Z,22.67
2022-10-29T10:37:02.591Z,22.56
2022-10-29T10:39:41.270Z,22.48
2022-10-29T10:42:23.371Z,22.40
2022-10-29T10:44:55.691Z,22.30
2022-10-29T10:47:27.538Z,22.29
2022-10-29T10:50:13.727Z,22.24
2022-10-29T10:52:41.382Z,22.20
2022-10-29T10:55:30.651Z,22.17
2022-10-29T10:58:25.775Z,21.94
2022-10-29T11:01:16.492Z,22.00
2022-10-29T11:03:47.123Z,22.27
2022-10-29T11:06:45.006Z,22.37
2022-10-29T11:09:55.812Z,22.32
2022-10-29T11:12:37.772Z,22.18
2022-10-29T11:15:15.031Z,22.09
2022-10-29T11:18:00.902Z,22.19
2022-10-29T11:20:36.543Z,21.97
2022-10-29T11:23:38.762Z,22.01
2022-10-29T11:26:22.506Z,21.92
2022-10-29T11:29:15.424Z,21.83
2022-10-29T11:31:55.697Z,21.96
2022-10-29T11:34:30.362Z,22.28
2022-10-29T11:37:05.445Z,22.35
2022-10-29T11:39:43.631Z,22.21
2022-10-29T11:42:10.424Z,22.24
2022-10-29T11:44:39.289Z,22.25
2022-10-29T11:47:08.940Z,22.10
2022-10-29T11:49:44.727Z,21.89
2022-10-29T11:52:35.499Z,21.91
2022-10-29T11:55:05.679Z,22.22
2022-10-29T11:57:44.203Z,22.47
2022-10-29T12:00:23.341Z,22.36
2022-10-29T12:03:59.180Z,22.19
2022-10-29T12:06:38.337Z,22.03
2022-10-29T12:09:31.027Z,22.22
2022-10-29T12:12:27.527Z,22.49
2022-10-29T12:15:12.158Z,22.44
2022-10-29T12:17:45.819Z,22.73
2022-10-29T12:20:31.169Z,22.62
2022-10-29T12:23:30.405Z,22.39
2022-10-29T12:26:07.672Z,22.56
2022-10-29T12:29:08.834Z,22.47
2022-10-29T12:32:08.629Z,22.63
2022-10-29T12:34:48.599Z,22.42
2022-10-29T12:38:01.306Z,22.22
2022-10-29T12:40:39.420Z,22.45
2022-10-29T12:43:13.923Z,22.64
2022-10-29T12:46:06.525Z,22.45
2022-10-29T12:48:53.518Z,22.72
2022-10-29T12:51:40.602Z,22.55
2022-10-29T12:54:39.635Z,22.74
2022-10-29T12:57:36.357Z,22.72
2022-10-29T13:00:27.888Z,22.46
2022-10-29T13:02:56.319Z,22.25
2022-10-29T13:05:26.349Z,22.41
2022-10-29T13:07:59.821Z,22.40
2022-10-29T13:10:33.020Z,22.63
2022-10-29T13:12:59.868Z,22.59
2022-10-29T13:15:47.633Z,22.51
2022-10-29T13:18:52.196Z,22.38
2022-10-29T13:21:56.686Z,22.71
2022-10-29T13:24:27.761Z,22.58
2022-10-29T13:26:55.882Z,22.61
2022-10-29T13:30:11.295Z,22.45
2022-10-29T13:32:41.713Z,22.31
2022-10-29T13:35:21.440Z,22.13
2022-10-29T13:38:12.768Z,21.98
2022-10-29T13:40:45.959Z,21.84
2022-10-29T13:43:19.162Z,21.88
2022-10-29T13:46:03.220Z,22.01
2022-10-29T13:48:37.508Z,22.12
2022-10-29T13:51:11.482Z,22.23
2022-10-29T13:53:50.256Z,22.20
2022-10-29T13:56:36.109Z,22.19
2022-10-29T13:59:11.297Z,22.31
2022-10-29T14:01:38.526Z,22.21
2022-10-29T14:04:25.338Z,22.23
2022-10-29T14:06:56.337Z,22.17
2022-10-29T14:09:55.917Z,22.06
2022-10-29T14:12:30.662Z,21.91
2022-10-29T14:15:12.742Z,22.39
2022-10-29T14:17:42.327Z,22.51
2022-10-29T14:20:21.788Z,22.35
2022-10-29T14:22:50.221Z,22.16
2022-10-29T14:25:32.957Z,22.07
2022-10-29T14:28:16.147Z,22.08
2022-10-29T14:30:58.980Z,22.03
2022-10-29T14:33:28.514Z,21.91
2022-10-29T14:36:15.188Z,22.00
2022-10-29T14:39:06.633Z,21.94
2022-10-29T14:41:53.625Z,21.89
2022-10-29T14:44:38.464Z,22.04
2022-10-29T14:47:13.271Z,22.14
2022-10-29T14:50:47.248Z,22.20
2022-10-29T14:56:23.289Z,22.05
2022-10-29T15:01:57.033Z,22.04
2022-10-29T15:31:53.810Z,21.69
2022-10-29T15:34:46.208Z,21.60
2022-10-29T15:43:33.714Z,21.47
2022-10-29T15:46:34.212Z,21.38
2022-10-29T15:49:05.750Z,21.39
2022-10-29T15:51:44.760Z,21.37
2022-10-29T15:54:18.370Z,21.32
2022-10-29T15:56:46.895Z,21.32
2022-10-29T15:59:20.584Z,21.30
2022-10-29T16:01:48.524Z,21.28
2022-10-29T16:04:20.092Z,21.28
2022-10-29T16:06:49.598Z,21.20
2022-10-29T16:09:19.762Z,21.15
2022-10-29T16:11:46.604Z,21.04
2022-10-29T16:14:16.204Z,20.96
2022-10-29T16:16:48.014Z,20.95
2022-10-29T16:19:15.951Z,20.91
2022-10-29T16:21:43.040Z,20.91
2022-10-29T16:24:14.808Z,20.90
2022-10-29T16:26:44.291Z,20.89
2022-10-29T16:29:16.157Z,20.85
2022-10-29T16:31:47.392Z,20.75
2022-10-29T16:34:27.081Z,20.72
2022-10-29T16:37:07.558Z,20.70
2022-10-29T16:39:59.720Z,20.64
2022-10-29T16:42:44.613Z,20.65
2022-10-29T16:45:17.559Z,20.60
2022-10-29T16:47:45.957Z,20.53
2022-10-29T16:50:17.993Z,20.48
2022-10-29T16:52:44.734Z,20.50
2022-10-29T16:55:17.583Z,20.42
2022-10-29T16:57:44.548Z,20.40
2022-10-29T17:02:56.513Z,20.44
2022-10-29T17:05:33.898Z,20.37
2022-10-29T17:08:14.712Z,20.35
2022-10-29T17:10:53.608Z,20.28
2022-10-29T17:13:20.489Z,20.24
2022-10-29T17:15:51.667Z,20.23
2022-10-29T17:18:18.318Z,20.13
2022-10-29T17:21:01.258Z,20.09
2022-10-29T17:23:28.881Z,20.08
2022-10-29T17:25:57.662Z,20.08
2022-10-29T17:28:28.750Z,20.03
2022-10-29T17:30:56.892Z,19.98
2022-10-29T17:33:23.644Z,19.98
2022-10-29T17:35:53.510Z,19.98
2022-10-29T17:38:24.203Z,19.91
2022-10-29T17:40:53.075Z,19.90
2022-10-29T17:43:28.634Z,19.82
2022-10-29T17:45:55.369Z,19.78
2022-10-29T17:48:24.974Z,19.79
2022-10-29T17:51:00.427Z,19.79
2022-10-29T17:53:28.550Z,19.71
2022-10-29T17:55:59.644Z,19.67
2022-10-29T17:58:29.097Z,19.64
2022-10-29T18:01:02.604Z,19.62
2022-10-29T18:03:30.181Z,19.69
2022-10-29T18:06:05.512Z,19.65
2022-10-29T18:08:33.055Z,19.56
2022-10-29T18:11:11.839Z,19.48
2022-10-29T18:13:44.095Z,19.45
2022-10-29T18:16:12.052Z,19.34
2022-10-29T18:18:54.361Z,19.28
2022-10-29T18:21:27.632Z,19.24
2022-10-29T18:23:59.658Z,19.23
2022-10-29T18:26:36.020Z,19.22
2022-10-29T18:29:08.434Z,19.25
2022-10-29T18:31:38.120Z,19.17
2022-10-29T18:34:08.345Z,19.16
2022-10-29T18:36:37.501Z,19.18
2022-10-29T18:39:05.682Z,19.19
2022-10-29T18:41:39.692Z,19.18
2022-10-29T18:44:06.920Z,19.11
2022-10-29T18:46:38.417Z,19.12
2022-10-29T18:49:05.286Z,19.03
2022-10-29T18:51:33.014Z,19.04
2022-10-29T18:54:04.687Z,18.98
2022-10-29T18:56:40.485Z,18.95
2022-10-29T18:59:18.191Z,18.91
2022-10-29T19:01:46.211Z,18.95
2022-10-29T19:04:19.431Z,19.03
2022-10-29T19:06:49.649Z,19.00
2022-10-29T19:09:19.854Z,18.91
2022-10-29T19:11:59.376Z,18.89
2022-10-29T19:14:26.745Z,18.93
2022-10-29T19:16:56.522Z,18.85
2022-10-29T19:19:24.088Z,18.70
2022-10-29T19:21:50.967Z,18.72
2022-10-29T19:24:21.161Z,18.71
2022-10-29T19:26:47.959Z,18.72
2022-10-29T19:29:14.859Z,18.71
2022-10-29T19:31:50.856Z,18.55
2022-10-29T19:34:34.873Z,18.53
2022-10-29T19:37:02.155Z,18.46
2022-10-29T19:39:29.137Z,18.44
2022-10-29T19:41:58.706Z,18.47
2022-10-29T19:44:27.839Z,18.47
2022-10-29T19:47:01.965Z,18.48
2022-10-29T19:49:37.303Z,18.46
2022-10-29T19:52:06.962Z,18.42
2022-10-29T19:54:35.800Z,18.47
2022-10-29T19:57:05.841Z,18.52
2022-10-29T19:59:32.700Z,18.54
2022-10-29T20:02:01.568Z,18.54
2022-10-29T20:04:28.514Z,18.54
2022-10-29T20:06:56.611Z,18.50
2022-10-29T20:09:28.877Z,18.42
2022-10-29T20:11:58.267Z,18.21
2022-10-29T20:14:28.874Z,18.20
2022-10-29T20:16:58.818Z,18.35
2022-10-29T20:19:38.932Z,18.37
2022-10-29T20:22:08.517Z,18.38
2022-10-29T20:24:38.297Z,18.23
2022-10-29T20:27:05.497Z,18.21
2022-10-29T20:29:33.484Z,18.27
2022-10-29T20:32:04.103Z,18.26
2022-10-29T20:34:33.955Z,18.22
2022-10-29T20:37:03.832Z,18.19
2022-10-29T20:39:33.423Z,18.20
2022-10-29T20:42:01.849Z,18.21
2022-10-29T20:44:31.664Z,18.12
2022-10-29T20:47:08.854Z,18.02
2022-10-29T20:49:36.907Z,17.98
2022-10-29T20:52:13.102Z,18.06
2022-10-29T20:54:48.996Z,18.03
2022-10-29T20:57:18.717Z,18.02
2022-10-29T20:59:46.151Z,17.96
2022-10-29T21:02:13.120Z,17.98
2022-10-29T21:04:39.888Z,18.00
2022-10-29T21:07:07.846Z,17.99
2022-10-29T21:09:34.969Z,17.99
2022-10-29T21:12:01.976Z,17.90
2022-10-29T21:14:29.766Z,17.87
2022-10-29T21:16:56.523Z,17.98
2022-10-29T21:19:32.376Z,18.01
2022-10-29T21:22:02.348Z,18.11
2022-10-29T21:24:29.315Z,18.15
2022-10-29T21:26:58.784Z,18.13
2022-10-29T21:29:57.138Z,18.16
2022-10-29T21:32:28.029Z,18.09
2022-10-29T21:35:03.909Z,18.03
2022-10-29T21:37:34.804Z,17.91
2022-10-29T21:40:10.679Z,17.88
2022-10-29T21:42:47.550Z,17.84
2022-10-29T21:45:20.305Z,17.77
2022-10-29T21:48:18.061Z,17.74
2022-10-29T21:51:10.113Z,17.71
2022-10-29T21:53:51.764Z,17.67
2022-10-29T21:56:28.991Z,17.55
2022-10-29T21:59:01.455Z,17.52
2022-10-29T22:01:44.840Z,17.48
2022-10-29T22:04:20.377Z,17.47
2022-10-29T22:06:47.162Z,17.54
2022-10-29T22:09:22.465Z,17.47
2022-10-29T22:11:49.229Z,17.32
2022-10-29T22:14:19.134Z,17.37
2022-10-29T22:16:52.601Z,17.47
2022-10-29T22:19:36.895Z,17.41
2022-10-29T22:22:08.709Z,17.38
2022-10-29T22:24:41.035Z,17.27
2022-10-29T22:27:19.022Z,17.23
2022-10-29T22:29:57.268Z,17.26
2022-10-29T22:35:07.116Z,17.27
2022-10-29T22:37:36.748Z,17.31
2022-10-29T22:40:03.896Z,17.30
2022-10-29T22:42:30.516Z,17.34
2022-10-29T22:44:57.298Z,17.26
2022-10-29T22:47:26.219Z,17.28
2022-10-29T22:49:58.541Z,17.24
2022-10-29T22:52:25.214Z,17.16
2022-10-29T22:54:57.830Z,17.18
2022-10-29T22:57:33.512Z,17.19
2022-10-29T23:00:00.280Z,17.18
2022-10-29T23:02:35.798Z,17.14
2022-10-29T23:05:03.900Z,17.14
2022-10-29T23:10:02.733Z,17.01
2022-10-29T23:12:31.707Z,17.15
2022-10-29T23:15:07.040Z,17.11
2022-10-29T23:17:37.859Z,17.01
2022-10-29T23:20:04.950Z,16.90
2022-10-29T23:22:34.445Z,16.96
2022-10-29T23:25:01.702Z,16.93
2022-10-29T23:27:29.936Z,17.00
2022-10-29T23:29:58.120Z,17.10
2022-10-29T23:32:24.912Z,17.14
2022-10-29T23:34:59.286Z,17.16
2022-10-29T23:37:28.905Z,17.01
2022-10-29T23:39:56.714Z,17.07
2022-10-29T23:42:26.427Z,17.09
2022-10-29T23:44:53.487Z,17.07
2022-10-29T23:47:23.659Z,16.99
2022-10-29T23:49:52.916Z,16.90
2022-10-29T23:52:37.258Z,16.84
2022-10-29T23:55:05.221Z,16.79
2022-10-29T23:57:35.898Z,16.76
